createdAt,value
2019-02-17T02:48:47.758Z,3.10
2019-02-17T02:51:17.099Z,3.10
2019-02-17T02:53:46.291Z,3.00
2019-02-17T02:56:15.415Z,3.10
2019-02-17T02:58:44.523Z,3.20
2019-02-17T03:01:14.320Z,3.10
2019-02-17T03:03:46.111Z,3.10
2019-02-17T03:06:17.080Z,3.20
2019-02-17T03:08:46.489Z,3.20
2019-02-17T03:11:15.760Z,3.20
2019-02-17T03:13:44.859Z,3.20
2019-02-17T03:16:13.984Z,3.20
2019-02-17T03:18:43.271Z,3.20
2019-02-17T03:21:12.362Z,3.20
2019-02-17T03:23:41.464Z,3.20
2019-02-17T03:26:10.598Z,3.30
2019-02-17T03:28:39.718Z,3.30
2019-02-17T03:31:08.834Z,3.30
2019-02-17T03:33:37.926Z,3.40
2019-02-17T03:36:07.056Z,3.40
2019-02-17T03:38:36.451Z,3.40
2019-02-17T03:41:05.576Z,3.40
2019-02-17T03:43:34.679Z,3.40
2019-02-17T03:46:04.111Z,3.30
2019-02-17T03:48:33.314Z,3.30
2019-02-17T03:51:03.482Z,3.30
2019-02-17T03:53:32.612Z,3.40
2019-02-17T03:56:01.751Z,3.30
2019-02-17T03:58:30.918Z,3.20
2019-02-17T04:01:00.284Z,3.10
2019-02-17T04:03:30.682Z,3.10
2019-02-17T04:05:59.797Z,3.10
2019-02-17T04:08:28.919Z,2.90
2019-02-17T04:10:58.106Z,2.90
2019-02-17T04:13:27.228Z,3.00
2019-02-17T04:15:56.359Z,3.10
2019-02-17T04:18:25.483Z,3.00
2019-02-17T04:20:54.690Z,2.90
2019-02-17T04:23:31.455Z,2.90
2019-02-17T04:25:55.576Z,2.80
2019-02-17T04:28:24.706Z,2.90
2019-02-17T04:30:53.822Z,2.90
2019-02-17T04:33:22.919Z,3.00
2019-02-17T04:35:52.052Z,2.90
2019-02-17T04:38:21.151Z,2.90
2019-02-17T04:40:50.257Z,2.90
2019-02-17T04:43:19.385Z,2.90
2019-02-17T04:45:48.819Z,2.90
2019-02-17T04:48:17.948Z,2.80
2019-02-17T04:50:47.063Z,2.80
2019-02-17T04:53:16.167Z,2.80
2019-02-17T04:55:45.271Z,2.80
2019-02-17T04:58:14.413Z,2.80
2019-02-17T05:00:43.548Z,2.70
2019-02-17T05:03:12.664Z,2.70
2019-02-17T05:05:43.257Z,2.80
2019-02-17T05:08:12.371Z,2.80
2019-02-17T05:10:41.475Z,2.60
2019-02-17T05:13:10.590Z,2.70
2019-02-17T05:15:39.722Z,2.60
2019-02-17T05:18:08.820Z,2.70
2019-02-17T05:20:37.920Z,2.90
2019-02-17T05:23:07.086Z,2.90
2019-02-17T05:25:36.193Z,2.90
2019-02-17T05:28:05.295Z,3.00
2019-02-17T05:30:34.411Z,3.00
2019-02-17T05:33:04.449Z,2.90
2019-02-17T05:35:33.720Z,2.80
2019-02-17T05:38:04.680Z,2.70
2019-02-17T05:40:36.464Z,2.60
2019-02-17T05:43:05.397Z,2.60
2019-02-17T05:45:34.689Z,2.60
2019-02-17T05:48:05.103Z,2.50
2019-02-17T05:50:34.629Z,2.50
2019-02-17T05:53:04.930Z,2.60
2019-02-17T05:55:34.313Z,2.60
2019-02-17T05:58:03.948Z,2.50
2019-02-17T06:00:34.342Z,2.40
2019-02-17T06:03:04.289Z,2.40
2019-02-17T06:05:33.691Z,2.50
2019-02-17T06:08:03.998Z,2.50
2019-02-17T06:10:33.222Z,2.50
2019-02-17T06:13:03.441Z,2.40
2019-02-17T06:15:33.089Z,2.50
2019-02-17T06:18:02.529Z,2.40
2019-02-17T06:20:31.809Z,2.40
2019-02-17T06:23:03.362Z,2.30
2019-02-17T06:25:32.650Z,2.40
2019-02-17T06:28:04.472Z,2.40
2019-02-17T06:30:33.735Z,2.30
2019-02-17T06:33:04.024Z,2.30
2019-02-17T06:35:33.281Z,2.40
2019-02-17T06:38:05.261Z,2.30
2019-02-17T06:40:36.151Z,2.30
2019-02-17T06:43:05.422Z,2.40
2019-02-17T06:45:34.834Z,2.40
2019-02-17T06:48:04.618Z,2.40
2019-02-17T06:50:33.871Z,2.40
2019-02-17T06:53:05.314Z,2.50
2019-02-17T06:55:36.103Z,2.50
2019-02-17T06:58:05.687Z,2.60
2019-02-17T07:00:36.606Z,2.60
2019-02-17T07:03:06.003Z,2.60
2019-02-17T07:05:48.880Z,2.50
2019-02-17T07:08:18.149Z,2.50
2019-02-17T07:10:47.368Z,2.50
2019-02-17T07:13:16.841Z,2.40
2019-02-17T07:15:46.435Z,2.40
2019-02-17T07:18:15.654Z,2.40
2019-02-17T07:20:44.961Z,2.60
2019-02-17T07:23:15.342Z,2.70
2019-02-17T07:25:44.935Z,2.60
2019-02-17T07:28:14.137Z,2.60
2019-02-17T07:30:43.487Z,2.60
2019-02-17T07:33:12.765Z,2.50
2019-02-17T07:35:43.332Z,2.70
2019-02-17T07:38:12.710Z,2.70
2019-02-17T07:40:42.087Z,2.70
2019-02-17T07:43:11.620Z,2.80
2019-02-17T07:45:40.908Z,2.90
2019-02-17T07:48:10.227Z,2.90
2019-02-17T07:50:39.443Z,2.90
2019-02-17T07:53:08.712Z,3.00
2019-02-17T07:55:38.104Z,3.10
2019-02-17T07:58:07.622Z,3.10
2019-02-17T08:00:37.328Z,3.10
2019-02-17T08:03:06.704Z,3.40
2019-02-17T08:05:36.209Z,3.50
2019-02-17T08:08:05.637Z,3.50
2019-02-17T08:10:34.971Z,3.60
2019-02-17T08:13:04.224Z,3.70
2019-02-17T08:15:33.453Z,3.70
2019-02-17T08:18:02.662Z,3.90
2019-02-17T08:20:31.768Z,4.00
2019-02-17T08:23:03.122Z,4.00
2019-02-17T08:25:32.418Z,4.10
2019-02-17T08:28:03.907Z,4.20
2019-02-17T08:30:33.122Z,4.30
2019-02-17T08:33:03.486Z,4.40
2019-02-17T08:35:32.599Z,4.50
2019-02-17T08:38:03.576Z,4.60
2019-02-17T08:40:32.760Z,4.60
2019-02-17T08:43:02.557Z,4.60
2019-02-17T08:45:31.665Z,4.70
2019-02-17T08:48:01.875Z,4.80
2019-02-17T08:50:30.983Z,4.80
2019-02-17T08:53:00.110Z,5.00
2019-02-17T08:55:29.468Z,5.10
2019-02-17T08:57:58.571Z,5.20
2019-02-17T09:00:27.896Z,5.30
2019-02-17T09:02:57.027Z,5.50
2019-02-17T09:05:26.163Z,5.70
2019-02-17T09:07:55.554Z,5.80
2019-02-17T09:10:24.664Z,5.80
2019-02-17T09:12:53.798Z,5.90
2019-02-17T09:15:22.918Z,6.00
2019-02-17T09:17:52.054Z,6.00
2019-02-17T09:20:21.160Z,6.10
2019-02-17T09:22:50.518Z,6.30
2019-02-17T09:25:19.648Z,6.30
2019-02-17T09:27:48.770Z,6.40
2019-02-17T09:30:18.248Z,6.60
2019-02-17T09:32:47.374Z,6.70
2019-02-17T09:35:16.475Z,6.80
2019-02-17T09:37:45.942Z,7.00
2019-02-17T09:40:15.067Z,7.10
2019-02-17T09:42:44.195Z,7.20
2019-02-17T09:45:15.327Z,7.30
2019-02-17T09:47:44.504Z,7.40
2019-02-17T09:50:16.295Z,7.50
2019-02-17T09:52:45.427Z,7.60
2019-02-17T09:55:14.528Z,7.70
2019-02-17T09:57:43.667Z,7.80
2019-02-17T10:00:14.996Z,8.00
2019-02-17T10:02:44.127Z,8.10
2019-02-17T10:05:13.470Z,8.20
2019-02-17T10:07:42.629Z,8.30
2019-02-17T10:10:17.332Z,8.40
2019-02-17T10:12:46.432Z,8.40
2019-02-17T10:15:15.531Z,8.50
2019-02-17T10:17:45.634Z,8.50
2019-02-17T10:20:17.669Z,8.60
2019-02-17T10:22:47.090Z,8.70
2019-02-17T10:25:16.223Z,8.80
2019-02-17T10:27:45.327Z,8.90
2019-02-17T10:30:18.039Z,9.00
2019-02-17T10:32:47.143Z,9.20
2019-02-17T10:35:16.663Z,9.30
2019-02-17T10:37:47.097Z,9.40
2019-02-17T10:40:17.919Z,9.50
2019-02-17T10:42:47.205Z,9.60
2019-02-17T10:45:17.461Z,9.60
2019-02-17T10:47:46.926Z,9.70
2019-02-17T10:50:16.224Z,9.90
2019-02-17T10:52:46.615Z,10.00
2019-02-17T10:55:15.908Z,10.10
2019-02-17T10:57:45.534Z,10.30
2019-02-17T11:00:22.258Z,10.40
2019-02-17T11:02:51.615Z,10.50
2019-02-17T11:05:21.142Z,10.60
2019-02-17T11:07:52.440Z,10.60
2019-02-17T11:10:21.828Z,10.90
2019-02-17T11:12:51.104Z,11.00
2019-02-17T11:15:21.189Z,11.10
2019-02-17T11:17:50.678Z,11.20
2019-02-17T11:20:20.034Z,11.30
2019-02-17T11:22:50.170Z,11.40
2019-02-17T11:25:19.619Z,11.60
2019-02-17T11:27:48.944Z,11.70
2019-02-17T11:30:21.892Z,11.80
2019-02-17T11:32:57.978Z,12.00
2019-02-17T11:35:23.176Z,12.20
2019-02-17T11:37:52.675Z,12.30
2019-02-17T11:40:22.139Z,12.50
2019-02-17T11:42:51.347Z,12.60
2019-02-17T11:45:20.896Z,12.80
2019-02-17T11:47:50.180Z,13.00
2019-02-17T11:50:19.503Z,13.20
2019-02-17T11:52:48.977Z,13.30
2019-02-17T11:55:18.261Z,13.50
2019-02-17T11:57:47.510Z,13.60
2019-02-17T12:00:19.170Z,13.80
2019-02-17T12:02:48.419Z,13.80
2019-02-17T12:05:17.795Z,13.90
2019-02-17T12:07:47.170Z,14.00
2019-02-17T12:10:16.533Z,14.20
2019-02-17T12:12:45.919Z,14.20
2019-02-17T12:15:16.545Z,14.40
2019-02-17T12:17:46.837Z,14.50
2019-02-17T12:20:38.168Z,14.60
2019-02-17T12:23:09.087Z,14.70
2019-02-17T12:25:56.474Z,14.90
2019-02-17T12:28:27.488Z,15.00
2019-02-17T12:30:56.758Z,15.20
2019-02-17T12:33:26.396Z,15.30
2019-02-17T12:35:55.749Z,15.40
2019-02-17T12:38:25.024Z,15.50
2019-02-17T12:40:54.418Z,15.50
2019-02-17T12:43:23.862Z,15.60
2019-02-17T12:45:54.618Z,15.60
2019-02-17T12:48:23.957Z,15.60
2019-02-17T12:50:53.340Z,15.60
2019-02-17T12:53:22.655Z,15.70
2019-02-17T12:55:51.886Z,15.80
2019-02-17T12:58:29.587Z,16.10
2019-02-17T13:00:52.078Z,16.20
2019-02-17T13:03:28.232Z,16.40
2019-02-17T13:05:52.368Z,16.60
2019-02-17T13:08:21.570Z,16.60
2019-02-17T13:10:50.922Z,16.70
2019-02-17T13:13:20.482Z,16.80
2019-02-17T13:15:49.895Z,16.80
2019-02-17T13:18:19.696Z,16.90
2019-02-17T13:20:49.060Z,17.00
2019-02-17T13:23:18.383Z,17.00
2019-02-17T13:25:47.674Z,17.20
2019-02-17T13:28:16.889Z,17.30
2019-02-17T13:30:46.293Z,17.50
2019-02-17T13:33:15.586Z,17.70
2019-02-17T13:35:44.859Z,17.80
2019-02-17T13:38:14.174Z,17.90
2019-02-17T13:40:43.456Z,18.00
2019-02-17T13:43:12.749Z,18.10
2019-02-17T13:45:42.019Z,18.20
2019-02-17T13:48:11.781Z,18.30
2019-02-17T13:50:41.255Z,18.50
2019-02-17T13:53:12.262Z,18.60
2019-02-17T13:55:41.773Z,18.70
2019-02-17T13:58:11.300Z,18.80
2019-02-17T14:00:40.733Z,18.80
2019-02-17T14:03:10.393Z,18.90
2019-02-17T14:05:39.786Z,19.00
2019-02-17T14:08:09.152Z,19.00
2019-02-17T14:10:38.704Z,19.20
2019-02-17T14:13:08.573Z,19.30
2019-02-17T14:15:37.894Z,19.40
2019-02-17T14:18:07.240Z,19.50
2019-02-17T14:20:36.761Z,19.70
2019-02-17T14:23:07.371Z,19.80
2019-02-17T14:25:36.636Z,19.80
2019-02-17T14:28:06.071Z,19.90
2019-02-17T14:30:35.591Z,20.00
2019-02-17T14:33:04.976Z,20.00
2019-02-17T14:35:34.071Z,20.10
2019-02-17T14:38:03.326Z,20.10
2019-02-17T14:40:32.431Z,20.10
2019-02-17T14:43:02.635Z,20.10
2019-02-17T14:45:31.787Z,20.10
2019-02-17T14:48:00.888Z,20.00
2019-02-17T14:50:30.009Z,20.00
2019-02-17T14:52:59.139Z,19.90
2019-02-17T14:55:28.292Z,19.80
2019-02-17T14:58:04.967Z,19.80
2019-02-17T15:00:28.257Z,19.60
2019-02-17T15:02:57.353Z,19.60
2019-02-17T15:05:26.454Z,19.50
2019-02-17T15:07:55.596Z,19.40
2019-02-17T15:10:24.733Z,19.30
2019-02-17T15:12:53.831Z,19.20
2019-02-17T15:15:22.970Z,19.10
2019-02-17T15:17:52.071Z,19.10
2019-02-17T15:20:23.680Z,19.00
2019-02-17T15:22:52.802Z,18.90
2019-02-17T15:25:21.943Z,18.80
2019-02-17T15:27:51.048Z,18.70
2019-02-17T15:30:20.278Z,18.70
2019-02-17T15:32:49.597Z,18.50
2019-02-17T15:35:18.855Z,18.40
2019-02-17T15:37:49.073Z,18.40
2019-02-17T15:40:18.299Z,18.30
2019-02-17T15:42:47.564Z,18.10
2019-02-17T15:45:16.762Z,18.00
2019-02-17T15:47:45.993Z,17.90
2019-02-17T15:50:15.393Z,17.80
2019-02-17T15:52:44.685Z,17.80
2019-02-17T15:55:15.141Z,17.70
2019-02-17T15:57:44.312Z,17.60
2019-02-17T16:00:18.340Z,17.40
2019-02-17T16:02:47.439Z,17.30
2019-02-17T16:05:16.583Z,17.20
2019-02-17T16:07:45.724Z,17.10
2019-02-17T16:10:18.273Z,17.00
2019-02-17T16:12:47.402Z,16.90
2019-02-17T16:15:19.076Z,16.80
2019-02-17T16:17:48.211Z,16.70
2019-02-17T16:20:17.584Z,16.70
2019-02-17T16:22:46.683Z,16.40
2019-02-17T16:25:15.789Z,16.30
2019-02-17T16:27:44.928Z,16.10
2019-02-17T16:30:16.240Z,15.90
2019-02-17T16:32:45.387Z,15.90
2019-02-17T16:35:14.534Z,15.70
2019-02-17T16:37:43.720Z,15.50
2019-02-17T16:40:15.370Z,15.30
2019-02-17T16:42:44.468Z,15.20
2019-02-17T16:45:15.239Z,15.00
2019-02-17T16:47:45.411Z,14.80
2019-02-17T16:50:17.655Z,14.60
2019-02-17T16:52:46.799Z,14.60
2019-02-17T16:55:15.910Z,14.50
2019-02-17T16:57:45.017Z,14.40
2019-02-17T17:00:24.944Z,14.40
2019-02-17T17:02:55.087Z,14.20
2019-02-17T17:05:24.874Z,14.10
2019-02-17T17:07:53.983Z,14.10
2019-02-17T17:10:23.082Z,13.90
2019-02-17T17:12:53.067Z,13.80
2019-02-17T17:15:22.176Z,13.70
2019-02-17T17:17:51.310Z,13.50
2019-02-17T17:20:21.459Z,13.40
2019-02-17T17:22:50.573Z,13.30
2019-02-17T17:25:19.708Z,13.20
2019-02-17T17:27:48.884Z,13.10
2019-02-17T17:30:18.920Z,13.00
2019-02-17T17:32:48.088Z,12.90
2019-02-17T17:35:17.244Z,12.80
2019-02-17T17:37:46.354Z,12.80
2019-02-17T17:40:16.522Z,12.60
2019-02-17T17:42:45.648Z,12.50
2019-02-17T17:45:16.314Z,12.50
2019-02-17T17:47:45.423Z,12.40
2019-02-17T17:50:15.366Z,12.30
2019-02-17T17:52:44.506Z,12.10
2019-02-17T17:55:13.895Z,11.90
2019-02-17T17:57:43.023Z,11.80
2019-02-17T18:00:17.209Z,11.70
2019-02-17T18:02:46.570Z,11.60
2019-02-17T18:05:15.678Z,11.50
2019-02-17T18:07:44.818Z,11.40
2019-02-17T18:10:17.237Z,11.30
2019-02-17T18:12:47.359Z,11.30
2019-02-17T18:15:18.607Z,11.20
2019-02-17T18:17:54.695Z,11.10
2019-02-17T18:20:18.547Z,10.90
2019-02-17T18:22:47.653Z,10.80
2019-02-17T18:25:16.802Z,10.80
2019-02-17T18:27:45.920Z,10.80
2019-02-17T18:30:20.026Z,10.60
2019-02-17T18:32:49.134Z,10.60
2019-02-17T18:35:20.141Z,10.50
2019-02-17T18:37:49.394Z,10.40
2019-02-17T18:40:19.998Z,10.30
2019-02-17T18:42:49.144Z,10.30
2019-02-17T18:45:18.246Z,10.30
2019-02-17T18:47:47.361Z,10.20
2019-02-17T18:50:17.643Z,10.10
2019-02-17T18:52:46.781Z,10.20
2019-02-17T18:55:15.890Z,10.20
2019-02-17T18:57:50.254Z,10.10
2019-02-17T19:00:21.224Z,10.10
2019-02-17T19:02:50.326Z,10.10
2019-02-17T19:05:21.587Z,10.00
2019-02-17T19:07:50.279Z,10.00
2019-02-17T19:10:19.387Z,9.80
2019-02-17T19:12:48.475Z,9.60
2019-02-17T19:15:20.009Z,9.60
2019-02-17T19:17:49.105Z,9.50
2019-02-17T19:20:21.077Z,9.40
2019-02-17T19:22:50.279Z,9.30
2019-02-17T19:25:19.452Z,9.30
2019-02-17T19:27:48.555Z,9.20
2019-02-17T19:30:17.679Z,9.20
2019-02-17T19:32:47.040Z,9.20
2019-02-17T19:35:16.448Z,9.20
2019-02-17T19:37:46.515Z,9.10
2019-02-17T19:40:15.640Z,9.00
2019-02-17T19:42:44.775Z,9.00
2019-02-17T19:45:18.881Z,9.00
2019-02-17T19:47:48.016Z,9.00
2019-02-17T19:50:17.384Z,8.90
2019-02-17T19:52:46.526Z,8.90
2019-02-17T19:55:15.691Z,8.80
2019-02-17T19:57:45.900Z,8.80
2019-02-17T20:00:18.256Z,8.80
2019-02-17T20:03:07.327Z,8.80
2019-02-17T20:05:38.064Z,8.80
2019-02-17T20:08:07.194Z,8.70
2019-02-17T20:10:36.297Z,8.70
2019-02-17T20:13:05.439Z,8.60
2019-02-17T20:15:35.364Z,8.50
2019-02-17T20:18:04.494Z,8.40
2019-02-17T20:20:33.629Z,8.30
2019-02-17T20:23:03.206Z,8.20
2019-02-17T20:25:32.342Z,8.20
2019-02-17T20:28:01.430Z,8.10
2019-02-17T20:30:31.649Z,8.10
2019-02-17T20:33:02.698Z,8.20
2019-02-17T20:35:31.826Z,8.30
2019-02-17T20:38:01.746Z,8.20
2019-02-17T20:40:30.885Z,8.20
2019-02-17T20:42:59.975Z,8.20
2019-02-17T20:45:30.353Z,8.10
2019-02-17T20:47:59.602Z,8.00
2019-02-17T20:50:28.698Z,8.00
2019-02-17T20:52:57.798Z,8.00
2019-02-17T20:55:27.259Z,7.90
2019-02-17T20:57:56.351Z,7.90
2019-02-17T21:00:28.823Z,7.90
2019-02-17T21:02:57.922Z,7.80
2019-02-17T21:05:27.327Z,7.80
2019-02-17T21:07:56.450Z,7.80
2019-02-17T21:10:25.556Z,7.80
2019-02-17T21:12:54.738Z,7.70
2019-02-17T21:15:23.834Z,7.70
2019-02-17T21:17:52.966Z,7.70
2019-02-17T21:20:22.343Z,7.70
2019-02-17T21:22:53.107Z,7.70
2019-02-17T21:25:23.438Z,7.60
2019-02-17T21:27:52.523Z,7.60
2019-02-17T21:30:21.624Z,7.50
2019-02-17T21:32:50.746Z,7.50
2019-02-17T21:35:19.876Z,7.40
2019-02-17T21:37:49.272Z,7.40
2019-02-17T21:40:18.372Z,7.30
2019-02-17T21:42:47.776Z,7.20
2019-02-17T21:45:17.966Z,7.20
2019-02-17T21:47:47.098Z,7.20
2019-02-17T21:50:16.195Z,7.20
2019-02-17T21:52:45.283Z,7.10
2019-02-17T21:55:14.878Z,7.10
2019-02-17T21:57:43.988Z,7.00
2019-02-17T22:00:16.680Z,7.00
2019-02-17T22:02:45.807Z,7.00
2019-02-17T22:05:14.904Z,6.90
2019-02-17T22:07:44.086Z,7.00
2019-02-17T22:10:20.022Z,6.90
2019-02-17T22:12:51.066Z,6.90
2019-02-17T22:15:22.231Z,6.90
2019-02-17T22:17:51.350Z,6.90
2019-02-17T22:20:20.444Z,6.90
2019-02-17T22:22:49.546Z,6.90
2019-02-17T22:25:18.674Z,7.00
2019-02-17T22:27:47.768Z,7.00
2019-02-17T22:30:16.891Z,6.90
2019-02-17T22:32:45.986Z,6.80
2019-02-17T22:35:15.199Z,6.80
2019-02-17T22:37:44.295Z,6.80
2019-02-17T22:40:25.748Z,6.70
2019-02-17T22:42:55.846Z,6.70
2019-02-17T22:45:24.963Z,6.70
2019-02-17T22:47:54.111Z,6.70
2019-02-17T22:50:23.490Z,6.60
2019-02-17T22:52:52.619Z,6.60
2019-02-17T22:55:21.737Z,6.60
2019-02-17T22:57:51.107Z,6.60
2019-02-17T23:00:24.758Z,6.60
2019-02-17T23:02:55.476Z,6.50
2019-02-17T23:05:24.599Z,6.50
2019-02-17T23:07:53.694Z,6.50
2019-02-17T23:10:22.794Z,6.50
2019-02-17T23:12:51.914Z,6.40
